Bangor International Airport Bangor US
ICAO: KBGR
IATA: BGR
Category: Large
Scheduled Services: Yes

Elevation: 192 ft
TransAlt. 18000 ft.

Airport Communications:
APP/DEP:118.925
ASOS:127.75
ATIS:127.75
CLNC DEL:135.9
GND:121.9
ARNG OPS:41.2
ANG OPS:31.1
RDO:122.2
TWR:120.7
UNICOM:122.95

KBGR Zoom In..

If you have problems with the map follow the link
https://www.worldairports.se/pages/airport.php?
ICAO=KBGR

Runways:

(A) RW 15 length 11440 ft width 200 ft
ILS 109.50 / hdg 153

(B) RW 33 length 11440 ft width 200 ft
ILS 109.50 / hdg 333

Location; KBGR
Day. 08 / Time. 03.53 Zulu
* Altimeter: 30.39
* Temperature: -11° c. -12.2°f.
* Wind from: 000° Speed 00 kn.
Dewpoint: -14° c.
Visibility: 10 Statute Miles.
Clouds: Clear (automated report).

KBGR 080353Z 00000KT 10SM CLR M11/M14 A3039 RMK AO2 SLP295 T11061144


Wind - Calm.

 
 
jpsmedia worldairports.se 2019   terms of use